Time;durP1;ratioP1;P1;durP2;ratioP2;P2;SDS_P1;SDS_P2;PMS_P1;PMS_P2;Temp;Humidity;BMP_temperature;BMP_pressure;BME280_temperature;BME280_humidity;BME280_pressure;Samples;Min_cycle;Max_cycle;Signal;HPM_P1;HPM_P2
2022/05/31 00:01:43;;;;;;;0.10;0.10;;;;;;;;;;5041578;28;20037;-88
2022/05/31 00:04:09;;;;;;;0.10;0.10;;;;;;;;;;5042804;28;20063;-88
2022/05/31 00:06:36;;;;;;;0.10;0.10;;;;;;;;;;5043003;28;20114;-88
2022/05/31 00:09:04;;;;;;;0.20;0.20;;;;;;;;;;5043034;28;20036;-87
2022/05/31 00:11:30;;;;;;;0.20;0.20;;;;;;;;;;5042912;28;20040;-87
2022/05/31 00:13:56;;;;;;;0.13;0.13;;;;;;;;;;5059505;28;20127;-88
2022/05/31 00:16:21;;;;;;;0.20;0.20;;;;;;;;;;5042754;28;20033;-88
2022/05/31 00:18:47;;;;;;;0.10;0.10;;;;;;;;;;5042725;28;20044;-88
2022/05/31 00:21:13;;;;;;;0.20;0.20;;;;;;;;;;5041788;28;20052;-85
2022/05/31 00:23:40;;;;;;;0.15;0.15;;;;;;;;;;5042527;28;20044;-87
2022/05/31 00:26:07;;;;;;;0.20;0.20;;;;;;;;;;5042349;28;20481;-88
2022/05/31 00:28:33;;;;;;;0.10;0.10;;;;;;;;;;5042857;28;20049;-88
2022/05/31 00:30:59;;;;;;;0.20;0.20;;;;;;;;;;5035790;28;20044;-88
2022/05/31 00:33:26;;;;;;;0.10;0.10;;;;;;;;;;5042193;28;20519;-88
2022/05/31 00:35:53;;;;;;;0.10;0.10;;;;;;;;;;5041939;28;20496;-88
2022/05/31 00:38:20;;;;;;;0.20;0.20;;;;;;;;;;5041833;28;20047;-88
2022/05/31 00:40:46;;;;;;;0.20;0.20;;;;;;;;;;5042152;28;20091;-88
2022/05/31 00:43:14;;;;;;;0.10;0.10;;;;;;;;;;5042002;28;20040;-86
2022/05/31 00:45:55;;;;;;;0.20;0.20;;;;;;;;;;5041908;28;20119;-87
2022/05/31 00:48:23;;;;;;;0.15;0.15;;;;;;;;;;5041711;28;20068;-88
2022/05/31 00:50:52;;;;;;;0.10;0.10;;;;;;;;;;5042265;28;20382;-88
2022/05/31 00:53:29;;;;;;;0.20;0.20;;;;;;;;;;5041993;28;20076;-87
2022/05/31 00:55:57;;;;;;;0.10;0.10;;;;;;;;;;5058523;28;20048;-88
2022/05/31 00:58:42;;;;;;;0.20;0.20;;;;;;;;;;5041091;28;20040;-87
2022/05/31 01:01:11;;;;;;;0.10;0.10;;;;;;;;;;5041498;28;20039;-87
2022/05/31 01:03:38;;;;;;;0.10;0.10;;;;;;;;;;5041244;28;20090;-87
2022/05/31 01:06:04;;;;;;;0.10;0.10;;;;;;;;;;5058037;28;20405;-88
2022/05/31 01:08:31;;;;;;;0.10;0.10;;;;;;;;;;5041729;28;20489;-87
2022/05/31 01:10:57;;;;;;;0.20;0.20;;;;;;;;;;5041491;28;20045;-87
2022/05/31 01:13:23;;;;;;;0.20;0.20;;;;;;;;;;5040634;28;20098;-88
2022/05/31 01:15:50;;;;;;;0.10;0.10;;;;;;;;;;5041995;28;20405;-88
2022/05/31 01:18:16;;;;;;;0.10;0.10;;;;;;;;;;5041768;28;20093;-87
2022/05/31 01:20:42;;;;;;;0.10;0.10;;;;;;;;;;5041166;28;20036;-89
2022/05/31 01:23:12;;;;;;;0.20;0.20;;;;;;;;;;5025103;28;20505;-87
2022/05/31 01:25:38;;;;;;;0.10;0.10;;;;;;;;;;5040955;28;20037;-86
2022/05/31 01:28:04;;;;;;;0.10;0.10;;;;;;;;;;5040897;28;20127;-87
2022/05/31 01:30:31;;;;;;;0.10;0.10;;;;;;;;;;5041842;28;20506;-88
2022/05/31 01:33:17;;;;;;;0.17;0.17;;;;;;;;;;5024373;28;20044;-86
2022/05/31 01:35:43;;;;;;;0.22;0.22;;;;;;;;;;5040932;28;20051;-88
2022/05/31 01:38:22;;;;;;;0.20;0.20;;;;;;;;;;5041126;28;20087;-88
2022/05/31 01:41:06;;;;;;;0.17;0.17;;;;;;;;;;5041487;28;20044;-88
2022/05/31 01:43:33;;;;;;;0.20;0.20;;;;;;;;;;5037401;28;20040;-88
2022/05/31 01:45:58;;;;;;;0.25;0.25;;;;;;;;;;5041343;28;20037;-88
2022/05/31 01:48:26;;;;;;;0.10;0.10;;;;;;;;;;5040724;28;20060;-87
2022/05/31 01:50:52;;;;;;;0.13;0.13;;;;;;;;;;5040754;28;20044;-87
2022/05/31 01:53:18;;;;;;;0.20;0.20;;;;;;;;;;5057526;28;20490;-87
2022/05/31 01:55:48;;;;;;;0.20;0.20;;;;;;;;;;5039706;28;20036;-87
2022/05/31 01:58:18;;;;;;;0.10;0.10;;;;;;;;;;5040533;28;20041;-88
2022/05/31 02:00:44;;;;;;;0.10;0.10;;;;;;;;;;5040458;28;20044;-88
2022/05/31 02:03:11;;;;;;;0.22;0.22;;;;;;;;;;5040544;28;20398;-87
2022/05/31 02:05:43;;;;;;;0.10;0.10;;;;;;;;;;5038063;28;20095;-88
2022/05/31 02:08:10;;;;;;;0.20;0.20;;;;;;;;;;5040083;28;20070;-88
2022/05/31 02:10:36;;;;;;;0.20;0.20;;;;;;;;;;5039690;28;20040;-88
2022/05/31 02:13:02;;;;;;;0.20;0.20;;;;;;;;;;5040689;28;20497;-88
2022/05/31 02:15:28;;;;;;;0.20;0.20;;;;;;;;;;5023437;28;20424;-88
2022/05/31 02:17:54;;;;;;;0.20;0.20;;;;;;;;;;5039771;28;20509;-88
2022/05/31 02:20:20;;;;;;;0.10;0.10;;;;;;;;;;5040462;28;20048;-87
2022/05/31 02:22:46;;;;;;;0.20;0.20;;;;;;;;;;5056895;28;20048;-87
2022/05/31 02:25:12;;;;;;;0.20;0.20;;;;;;;;;;5039504;28;20040;-88
2022/05/31 02:27:38;;;;;;;0.10;0.10;;;;;;;;;;5039935;28;20094;-88
2022/05/31 02:30:05;;;;;;;0.40;0.40;;;;;;;;;;5040602;28;20125;-88
2022/05/31 02:32:31;;;;;;;0.20;0.20;;;;;;;;;;5033787;28;20094;-88
2022/05/31 02:34:58;;;;;;;0.10;0.10;;;;;;;;;;5050015;28;20325;-88
2022/05/31 02:37:27;;;;;;;0.17;0.17;;;;;;;;;;5040270;28;20452;-89
2022/05/31 02:39:53;;;;;;;0.20;0.20;;;;;;;;;;5036766;28;20517;-88
2022/05/31 02:42:19;;;;;;;0.28;0.28;;;;;;;;;;5040087;28;20043;-88
2022/05/31 02:44:45;;;;;;;0.20;0.20;;;;;;;;;;5039705;28;20044;-88
2022/05/31 02:47:11;;;;;;;0.20;0.20;;;;;;;;;;5039630;28;20047;-88
2022/05/31 02:49:39;;;;;;;0.20;0.20;;;;;;;;;;5040204;28;20037;-88
2022/05/31 02:52:05;;;;;;;0.30;0.30;;;;;;;;;;5040353;28;20114;-89
2022/05/31 02:54:32;;;;;;;0.17;0.17;;;;;;;;;;5040781;28;20041;-89
2022/05/31 02:57:00;;;;;;;0.10;0.10;;;;;;;;;;5040684;28;20033;-89
2022/05/31 02:59:25;;;;;;;0.10;0.10;;;;;;;;;;5040447;28;20044;-87
2022/05/31 03:01:52;;;;;;;0.10;0.10;;;;;;;;;;5040711;28;20044;-88
2022/05/31 03:04:18;;;;;;;0.10;0.10;;;;;;;;;;5056826;28;20080;-87
2022/05/31 03:06:45;;;;;;;0.10;0.10;;;;;;;;;;5056899;28;20489;-87
2022/05/31 03:09:12;;;;;;;0.30;0.30;;;;;;;;;;5040504;28;20165;-87
2022/05/31 03:11:40;;;;;;;0.20;0.20;;;;;;;;;;5040711;28;20044;-88
2022/05/31 03:14:12;;;;;;;0.10;0.10;;;;;;;;;;5040083;28;20040;-87
2022/05/31 03:16:41;;;;;;;0.20;0.20;;;;;;;;;;5040153;28;20041;-87
2022/05/31 03:19:10;;;;;;;0.10;0.10;;;;;;;;;;5040572;28;20116;-88
2022/05/31 03:21:39;;;;;;;0.10;0.10;;;;;;;;;;5040385;28;20128;-88
2022/05/31 03:24:16;;;;;;;0.10;0.10;;;;;;;;;;5040774;28;20045;-87
2022/05/31 03:26:44;;;;;;;0.30;0.30;;;;;;;;;;5040426;28;20075;-85
2022/05/31 03:29:10;;;;;;;0.20;0.20;;;;;;;;;;5034537;28;20504;-88
2022/05/31 03:31:36;;;;;;;0.17;0.17;;;;;;;;;;5039816;28;20037;-86
2022/05/31 03:34:04;;;;;;;0.20;0.20;;;;;;;;;;5040871;28;20047;-87
2022/05/31 03:36:31;;;;;;;0.20;0.20;;;;;;;;;;5042164;28;20103;-89
2022/05/31 03:38:57;;;;;;;0.20;0.20;;;;;;;;;;5043827;28;20040;-88
2022/05/31 03:41:23;;;;;;;0.20;0.20;;;;;;;;;;5044221;28;20063;-88
2022/05/31 03:43:49;;;;;;;0.10;0.10;;;;;;;;;;5043897;28;20098;-87
2022/05/31 03:46:16;;;;;;;0.10;0.10;;;;;;;;;;5044219;28;20100;-88
2022/05/31 03:48:42;;;;;;;0.10;0.10;;;;;;;;;;5045818;28;20453;-88
2022/05/31 03:51:10;;;;;;;0.10;0.10;;;;;;;;;;5044145;28;20044;-88
2022/05/31 03:53:36;;;;;;;0.10;0.10;;;;;;;;;;5011180;28;20131;-88
2022/05/31 03:56:03;;;;;;;0.13;0.13;;;;;;;;;;5042527;28;20453;-88
2022/05/31 03:58:29;;;;;;;0.10;0.10;;;;;;;;;;5043286;28;20045;-88
2022/05/31 04:00:56;;;;;;;0.13;0.13;;;;;;;;;;5060302;28;20037;-88
2022/05/31 04:03:22;;;;;;;0.20;0.20;;;;;;;;;;5042307;28;20528;-88
2022/05/31 04:05:49;;;;;;;0.10;0.10;;;;;;;;;;5043076;28;20115;-88
2022/05/31 04:08:15;;;;;;;0.10;0.10;;;;;;;;;;5060246;28;20110;-88
2022/05/31 04:10:42;;;;;;;0.20;0.20;;;;;;;;;;5043866;28;20090;-88
2022/05/31 04:13:08;;;;;;;0.10;0.10;;;;;;;;;;5026724;28;20461;-87
2022/05/31 04:15:35;;;;;;;0.22;0.22;;;;;;;;;;5060538;28;20032;-88
2022/05/31 04:18:02;;;;;;;0.20;0.20;;;;;;;;;;5044058;28;20483;-88
2022/05/31 04:20:29;;;;;;;0.17;0.17;;;;;;;;;;5027347;28;20033;-88
2022/05/31 04:25:40;;;;;;;0.10;0.10;;;;;;;;;;5059691;28;20044;-89
2022/05/31 04:28:07;;;;;;;0.20;0.20;;;;;;;;;;5043001;28;20038;-88
2022/05/31 04:30:33;;;;;;;0.10;0.10;;;;;;;;;;5042650;28;20040;-88
2022/05/31 04:32:59;;;;;;;0.10;0.10;;;;;;;;;;5042789;28;20040;-88
2022/05/31 04:35:25;;;;;;;0.20;0.20;;;;;;;;;;5042888;28;20048;-88
2022/05/31 04:37:51;;;;;;;0.10;0.10;;;;;;;;;;5042651;28;20104;-87
2022/05/31 04:40:17;;;;;;;0.20;0.20;;;;;;;;;;5038578;28;20478;-88
2022/05/31 04:42:43;;;;;;;0.28;0.28;;;;;;;;;;5039954;28;20060;-88
2022/05/31 04:45:10;;;;;;;0.20;0.20;;;;;;;;;;5038254;28;20040;-88
2022/05/31 04:47:36;;;;;;;0.20;0.20;;;;;;;;;;5035568;28;20551;-88
2022/05/31 04:50:02;;;;;;;0.28;0.28;;;;;;;;;;5039853;28;20044;-88
2022/05/31 04:52:28;;;;;;;0.15;0.15;;;;;;;;;;5038882;28;20047;-88
2022/05/31 04:54:54;;;;;;;0.20;0.20;;;;;;;;;;5042448;28;20037;-87
2022/05/31 04:57:20;;;;;;;0.20;0.20;;;;;;;;;;5041563;28;20351;-88
2022/05/31 04:59:46;;;;;;;0.10;0.10;;;;;;;;;;5039961;28;20051;-88
2022/05/31 05:02:12;;;;;;;0.20;0.20;;;;;;;;;;5054632;28;20037;-88
2022/05/31 05:04:38;;;;;;;0.20;0.20;;;;;;;;;;5035124;28;20028;-89
2022/05/31 05:07:04;;;;;;;0.00;0.00;;;;;;;;;;5035737;28;20127;-88
2022/05/31 05:09:30;;;;;;;0.17;0.17;;;;;;;;;;5041130;28;20040;-88
2022/05/31 05:11:56;;;;;;;0.20;0.20;;;;;;;;;;5054641;28;20040;-88
2022/05/31 05:14:23;;;;;;;0.20;0.20;;;;;;;;;;5035727;28;20067;-89
2022/05/31 05:16:49;;;;;;;0.20;0.20;;;;;;;;;;5039914;28;20040;-88
2022/05/31 05:19:16;;;;;;;0.10;0.10;;;;;;;;;;5041106;28;20043;-88
2022/05/31 05:21:42;;;;;;;0.20;0.20;;;;;;;;;;5041037;28;20032;-88
2022/05/31 05:24:08;;;;;;;0.30;0.30;;;;;;;;;;5040746;28;20032;-88
2022/05/31 05:26:35;;;;;;;0.10;0.10;;;;;;;;;;5036221;28;20095;-88
2022/05/31 05:31:46;;;;;;;0.20;0.20;;;;;;;;;;5053766;28;20052;-89
2022/05/31 05:34:13;;;;;;;0.10;0.10;;;;;;;;;;5046354;28;20037;-89
2022/05/31 05:36:39;;;;;;;0.20;0.20;;;;;;;;;;5038691;28;20043;-88
2022/05/31 05:39:10;;;;;;;0.10;0.10;;;;;;;;;;5032558;28;20036;-88
2022/05/31 05:41:36;;;;;;;0.10;0.10;;;;;;;;;;5032193;28;20072;-90
2022/05/31 05:44:03;;;;;;;0.10;0.10;;;;;;;;;;5040668;28;20118;-90
2022/05/31 05:46:29;;;;;;;0.20;0.20;;;;;;;;;;5042474;28;20488;-89
2022/05/31 05:48:56;;;;;;;0.10;0.10;;;;;;;;;;5042389;28;20048;-88
2022/05/31 05:51:32;;;;;;;0.20;0.20;;;;;;;;;;5025018;28;20128;-87
2022/05/31 05:53:58;;;;;;;0.15;0.15;;;;;;;;;;5042429;28;20131;-88
2022/05/31 05:56:25;;;;;;;0.17;0.17;;;;;;;;;;5041695;28;20033;-88
2022/05/31 05:58:54;;;;;;;0.10;0.10;;;;;;;;;;5057967;28;20051;-91
2022/05/31 06:01:27;;;;;;;0.20;0.20;;;;;;;;;;5058131;28;20043;-88
2022/05/31 06:03:56;;;;;;;0.20;0.20;;;;;;;;;;5041739;28;20500;-86
2022/05/31 06:06:23;;;;;;;0.20;0.20;;;;;;;;;;5037227;28;20106;-87
2022/05/31 06:08:54;;;;;;;0.17;0.17;;;;;;;;;;5035665;28;20041;-87
2022/05/31 06:11:38;;;;;;;0.20;0.20;;;;;;;;;;5039916;28;20040;-86
2022/05/31 06:14:19;;;;;;;0.10;0.10;;;;;;;;;;5041430;28;20040;-87
2022/05/31 06:16:52;;;;;;;0.20;0.20;;;;;;;;;;5035142;28;20056;-87
2022/05/31 06:19:19;;;;;;;0.20;0.20;;;;;;;;;;5040400;28;20041;-86
2022/05/31 06:21:46;;;;;;;0.15;0.15;;;;;;;;;;5039177;28;20433;-87
2022/05/31 06:24:12;;;;;;;0.20;0.20;;;;;;;;;;5039593;28;20029;-87
2022/05/31 06:26:39;;;;;;;0.20;0.20;;;;;;;;;;5036770;28;20032;-88
2022/05/31 06:29:05;;;;;;;0.10;0.10;;;;;;;;;;5039397;28;20409;-87
2022/05/31 06:31:31;;;;;;;0.20;0.20;;;;;;;;;;5034033;28;20044;-88
2022/05/31 06:33:57;;;;;;;0.10;0.10;;;;;;;;;;5041578;28;20037;-89
2022/05/31 06:36:23;;;;;;;0.10;0.10;;;;;;;;;;5042241;28;20179;-88
2022/05/31 06:38:49;;;;;;;0.10;0.10;;;;;;;;;;5040034;28;20040;-88
2022/05/31 06:41:15;;;;;;;0.20;0.20;;;;;;;;;;5056696;28;20040;-87
2022/05/31 06:43:41;;;;;;;0.15;0.15;;;;;;;;;;5046383;28;20064;-91
2022/05/31 06:46:08;;;;;;;0.20;0.20;;;;;;;;;;5057512;28;20102;-88
2022/05/31 06:48:38;;;;;;;0.10;0.10;;;;;;;;;;5056436;28;20397;-90
2022/05/31 06:51:09;;;;;;;0.20;0.20;;;;;;;;;;5019400;28;20041;-89
2022/05/31 06:59:04;;;;;;;0.10;0.10;;;;;;;;;;5055616;28;20558;-86
2022/05/31 07:01:35;;;;;;;0.20;0.20;;;;;;;;;;5040137;28;20115;-86
2022/05/31 07:04:02;;;;;;;0.05;0.05;;;;;;;;;;5056394;28;20044;-88
2022/05/31 07:06:28;;;;;;;0.10;0.10;;;;;;;;;;5039706;28;20127;-87
2022/05/31 07:08:54;;;;;;;0.20;0.20;;;;;;;;;;5022569;28;20127;-86
2022/05/31 07:11:21;;;;;;;0.10;0.10;;;;;;;;;;5042286;28;20044;-84
2022/05/31 07:13:47;;;;;;;0.10;0.10;;;;;;;;;;5059247;28;20055;-84
2022/05/31 07:16:16;;;;;;;0.05;0.05;;;;;;;;;;5042176;28;20471;-88
2022/05/31 07:18:42;;;;;;;0.10;0.10;;;;;;;;;;5042482;28;20098;-84
2022/05/31 07:21:10;;;;;;;0.10;0.10;;;;;;;;;;5042716;28;20047;-83
2022/05/31 07:23:38;;;;;;;0.20;0.20;;;;;;;;;;5059355;28;20033;-85
2022/05/31 07:26:04;;;;;;;0.10;0.10;;;;;;;;;;5043683;28;20037;-89
2022/05/31 07:28:30;;;;;;;0.10;0.10;;;;;;;;;;5043500;28;20040;-87
2022/05/31 07:30:57;;;;;;;0.10;0.10;;;;;;;;;;5040645;28;20080;-87
2022/05/31 07:33:23;;;;;;;0.10;0.10;;;;;;;;;;5040841;28;20062;-83
2022/05/31 07:35:49;;;;;;;0.10;0.10;;;;;;;;;;5042583;28;20116;-90
2022/05/31 07:38:16;;;;;;;0.10;0.10;;;;;;;;;;5042033;28;20044;-86
2022/05/31 07:40:43;;;;;;;0.10;0.10;;;;;;;;;;5042533;28;20397;-88
2022/05/31 07:43:10;;;;;;;0.10;0.10;;;;;;;;;;5058485;28;20083;-89
2022/05/31 07:45:36;;;;;;;0.17;0.17;;;;;;;;;;5041765;28;20123;-89
2022/05/31 07:48:03;;;;;;;0.10;0.10;;;;;;;;;;5058920;28;20055;-87
2022/05/31 07:50:29;;;;;;;0.10;0.10;;;;;;;;;;5059373;28;20045;-88
2022/05/31 07:52:56;;;;;;;0.10;0.10;;;;;;;;;;5043261;28;20032;-87
2022/05/31 07:55:22;;;;;;;0.17;0.17;;;;;;;;;;5042421;28;20071;-87
2022/05/31 08:00:33;;;;;;;0.00;0.00;;;;;;;;;;5059219;28;20490;-84
2022/05/31 08:02:59;;;;;;;0.00;0.00;;;;;;;;;;5043835;28;20032;-82
2022/05/31 08:05:29;;;;;;;0.10;0.10;;;;;;;;;;5047774;28;20147;-88
2022/05/31 08:07:55;;;;;;;0.20;0.20;;;;;;;;;;5042728;28;20102;-85
2022/05/31 08:10:26;;;;;;;0.10;0.10;;;;;;;;;;5060727;28;20524;-92
2022/05/31 08:12:52;;;;;;;0.10;0.10;;;;;;;;;;5058366;28;20432;-86
2022/05/31 08:15:18;;;;;;;0.20;0.20;;;;;;;;;;5043591;28;20043;-89
2022/05/31 08:17:46;;;;;;;0.00;0.00;;;;;;;;;;5059406;28;20413;-86
2022/05/31 08:20:12;;;;;;;0.10;0.10;;;;;;;;;;5041337;28;20489;-91
2022/05/31 08:22:38;;;;;;;0.00;0.00;;;;;;;;;;5040806;28;20425;-83
2022/05/31 08:25:06;;;;;;;0.40;0.32;;;;;;;;;;5059376;28;20441;-86
2022/05/31 08:27:34;;;;;;;0.10;0.10;;;;;;;;;;5042662;28;20040;-86
2022/05/31 08:30:03;;;;;;;0.05;0.05;;;;;;;;;;5025381;28;20477;-89
2022/05/31 08:32:29;;;;;;;0.05;0.05;;;;;;;;;;5041488;28;20044;-90
2022/05/31 08:34:55;;;;;;;0.00;0.00;;;;;;;;;;5040776;28;20194;-87
2022/05/31 08:37:21;;;;;;;0.10;0.10;;;;;;;;;;5024845;28;20076;-87
2022/05/31 08:39:48;;;;;;;0.05;0.05;;;;;;;;;;5040952;28;20131;-85
2022/05/31 08:42:15;;;;;;;0.10;0.10;;;;;;;;;;5041252;28;20059;-86
2022/05/31 08:44:41;;;;;;;0.10;0.10;;;;;;;;;;5057937;28;20116;-85
2022/05/31 08:47:16;;;;;;;0.10;0.10;;;;;;;;;;5041530;28;20405;-85
2022/05/31 08:52:50;;;;;;;0.10;0.10;;;;;;;;;;5057809;28;20501;-84
2022/05/31 08:58:11;;;;;;;0.10;0.10;;;;;;;;;;5059323;28;20425;-88
2022/05/31 09:00:40;;;;;;;0.00;0.00;;;;;;;;;;5027008;28;20443;-88
2022/05/31 09:03:09;;;;;;;0.10;0.10;;;;;;;;;;5044786;28;20051;-87
2022/05/31 09:05:37;;;;;;;0.10;0.10;;;;;;;;;;5042341;28;20127;-87
2022/05/31 09:08:06;;;;;;;0.03;0.03;;;;;;;;;;5041767;28;20048;-86
2022/05/31 09:10:45;;;;;;;0.10;0.10;;;;;;;;;;5041644;28;20120;-87
2022/05/31 09:13:20;;;;;;;0.10;0.10;;;;;;;;;;5054960;28;20076;-86
2022/05/31 09:15:53;;;;;;;0.10;0.10;;;;;;;;;;5041877;28;20131;-88
2022/05/31 09:18:22;;;;;;;0.10;0.10;;;;;;;;;;5036830;28;20040;-89
2022/05/31 09:20:56;;;;;;;0.13;0.13;;;;;;;;;;5042535;28;20127;-87
2022/05/31 09:23:25;;;;;;;0.00;0.00;;;;;;;;;;5057145;28;20551;-87
2022/05/31 09:26:05;;;;;;;0.00;0.00;;;;;;;;;;5039431;28;20405;-86
2022/05/31 09:28:46;;;;;;;0.10;0.10;;;;;;;;;;5039728;28;20082;-86
2022/05/31 09:31:32;;;;;;;0.10;0.10;;;;;;;;;;5049910;28;20067;-86
2022/05/31 09:34:01;;;;;;;0.00;0.00;;;;;;;;;;5035200;28;20433;-86
2022/05/31 09:36:41;;;;;;;0.05;0.05;;;;;;;;;;5039005;28;20393;-84
2022/05/31 09:39:07;;;;;;;0.00;0.00;;;;;;;;;;5038591;28;20473;-84
2022/05/31 09:41:46;;;;;;;0.10;0.10;;;;;;;;;;5055066;28;20075;-84
2022/05/31 09:44:25;;;;;;;0.00;0.00;;;;;;;;;;5039176;28;20033;-85
2022/05/31 09:46:56;;;;;;;0.00;0.00;;;;;;;;;;5039516;28;20036;-87
2022/05/31 09:49:28;;;;;;;0.00;0.00;;;;;;;;;;5053241;28;20033;-86
2022/05/31 09:51:54;;;;;;;0.00;0.00;;;;;;;;;;5036122;28;20079;-84
2022/05/31 09:57:42;;;;;;;0.10;0.10;;;;;;;;;;5148164;27;20046;-86
2022/05/31 10:00:20;;;;;;;0.00;0.00;;;;;;;;;;5128608;27;20043;-87
2022/05/31 10:02:57;;;;;;;0.52;0.52;;;;;;;;;;5138758;27;20031;-86
2022/05/31 10:05:23;;;;;;;0.05;0.05;;;;;;;;;;5119978;27;20069;-86
2022/05/31 10:07:50;;;;;;;0.00;0.00;;;;;;;;;;5127029;27;20031;-86
2022/05/31 10:10:16;;;;;;;0.10;0.10;;;;;;;;;;5124917;27;20381;-86
2022/05/31 10:12:49;;;;;;;0.10;0.10;;;;;;;;;;5118718;27;20042;-86
2022/05/31 10:15:34;;;;;;;0.10;0.10;;;;;;;;;;5129449;27;20499;-87
2022/05/31 10:18:04;;;;;;;0.03;0.03;;;;;;;;;;5131757;27;20043;-85
2022/05/31 10:20:31;;;;;;;0.00;0.00;;;;;;;;;;5134711;27;20035;-85
2022/05/31 10:23:03;;;;;;;0.00;0.00;;;;;;;;;;5121308;27;20404;-86
2022/05/31 10:25:51;;;;;;;0.00;0.00;;;;;;;;;;5143107;27;20038;-85
2022/05/31 10:28:27;;;;;;;0.10;0.10;;;;;;;;;;5147312;27;20038;-86
2022/05/31 10:31:03;;;;;;;0.10;0.10;;;;;;;;;;5125814;27;20395;-87
2022/05/31 10:33:29;;;;;;;0.10;0.10;;;;;;;;;;5127958;27;20035;-87
2022/05/31 10:36:06;;;;;;;0.10;0.10;;;;;;;;;;5122003;27;20031;-87
2022/05/31 10:38:32;;;;;;;0.00;0.00;;;;;;;;;;5117832;27;20038;-87
2022/05/31 10:41:09;;;;;;;0.10;0.10;;;;;;;;;;5119987;27;20035;-88
2022/05/31 10:43:43;;;;;;;0.10;0.10;;;;;;;;;;5125020;27;20067;-87
2022/05/31 10:46:19;;;;;;;0.10;0.10;;;;;;;;;;5126814;27;20395;-85
2022/05/31 10:48:48;;;;;;;0.10;0.10;;;;;;;;;;5125215;27;20042;-86
2022/05/31 10:51:17;;;;;;;0.10;0.10;;;;;;;;;;5129324;27;20043;-86
2022/05/31 10:53:43;;;;;;;0.00;0.00;;;;;;;;;;5123110;27;20534;-88
2022/05/31 10:56:18;;;;;;;0.00;0.00;;;;;;;;;;5148123;27;20027;-87
2022/05/31 10:58:55;;;;;;;0.10;0.10;;;;;;;;;;5111842;27;20034;-86
2022/05/31 11:01:40;;;;;;;0.10;0.10;;;;;;;;;;5121946;27;20060;-87
2022/05/31 11:04:19;;;;;;;0.00;0.00;;;;;;;;;;5135981;27;20050;-84
2022/05/31 11:06:54;;;;;;;0.10;0.10;;;;;;;;;;5108139;27;20125;-88
2022/05/31 11:12:42;;;;;;;0.00;0.00;;;;;;;;;;5138506;27;20042;-91
2022/05/31 11:15:27;;;;;;;0.00;0.00;;;;;;;;;;5137102;27;20066;-89
2022/05/31 11:18:12;;;;;;;0.10;0.10;;;;;;;;;;5122517;27;20043;-88
2022/05/31 11:20:44;;;;;;;0.10;0.10;;;;;;;;;;5136605;27;20125;-88
2022/05/31 11:23:46;;;;;;;0.00;0.00;;;;;;;;;;5124094;27;20535;-88
2022/05/31 11:26:27;;;;;;;0.00;0.00;;;;;;;;;;5007677;28;20045;-89
2022/05/31 11:29:09;;;;;;;0.03;0.03;;;;;;;;;;5098811;27;20119;-86
2022/05/31 11:31:41;;;;;;;0.20;0.20;;;;;;;;;;5116990;27;20476;-89
2022/05/31 11:34:22;;;;;;;0.10;0.10;;;;;;;;;;5107266;27;20035;-85
2022/05/31 11:37:10;;;;;;;0.00;0.00;;;;;;;;;;5117285;27;20058;-87
2022/05/31 11:39:36;;;;;;;0.10;0.10;;;;;;;;;;5107806;27;20399;-86
2022/05/31 11:42:21;;;;;;;0.10;0.10;;;;;;;;;;5111477;27;20585;-85
2022/05/31 11:44:50;;;;;;;0.10;0.10;;;;;;;;;;5111996;27;20035;-85
2022/05/31 11:47:21;;;;;;;0.00;0.00;;;;;;;;;;5118958;27;20035;-89
2022/05/31 11:49:52;;;;;;;0.10;0.10;;;;;;;;;;5080477;28;20047;-89
2022/05/31 11:52:36;;;;;;;0.00;0.00;;;;;;;;;;5120696;27;20502;-87
2022/05/31 11:57:50;;;;;;;0.03;0.03;;;;;;;;;;5120933;27;20082;-87
2022/05/31 12:00:17;;;;;;;0.00;0.00;;;;;;;;;;5114301;27;20118;-90
2022/05/31 12:03:18;;;;;;;0.10;0.10;;;;;;;;;;5136204;27;20047;-88
2022/05/31 12:05:48;;;;;;;0.10;0.10;;;;;;;;;;5048351;27;20638;-90
2022/05/31 12:08:20;;;;;;;0.10;0.10;;;;;;;;;;5110486;27;20506;-89
2022/05/31 12:10:49;;;;;;;0.00;0.00;;;;;;;;;;5106244;27;20050;-86
2022/05/31 12:13:16;;;;;;;0.05;0.05;;;;;;;;;;5108262;27;20122;-85
2022/05/31 12:15:43;;;;;;;0.10;0.10;;;;;;;;;;5106807;27;20035;-86
2022/05/31 12:18:09;;;;;;;0.10;0.10;;;;;;;;;;5118664;27;20035;-86
2022/05/31 12:20:54;;;;;;;0.00;0.00;;;;;;;;;;5134532;27;20035;-82
2022/05/31 12:23:32;;;;;;;0.10;0.10;;;;;;;;;;5104339;28;20044;-84
2022/05/31 12:25:59;;;;;;;0.10;0.10;;;;;;;;;;5107234;27;20038;-82
2022/05/31 12:28:30;;;;;;;0.10;0.10;;;;;;;;;;5109909;27;20046;-83
2022/05/31 12:30:56;;;;;;;0.10;0.10;;;;;;;;;;5105094;27;20035;-84
2022/05/31 12:33:26;;;;;;;0.10;0.10;;;;;;;;;;5108415;27;20035;-84
2022/05/31 12:35:54;;;;;;;0.08;0.08;;;;;;;;;;5111280;27;20041;-88
2022/05/31 12:38:21;;;;;;;0.10;0.10;;;;;;;;;;5115035;27;20121;-85
2022/05/31 12:40:49;;;;;;;0.03;0.03;;;;;;;;;;5109564;27;20039;-86
2022/05/31 12:43:16;;;;;;;0.03;0.03;;;;;;;;;;5105333;27;20468;-85
2022/05/31 12:45:48;;;;;;;0.00;0.00;;;;;;;;;;5112653;27;20095;-88
2022/05/31 12:48:20;;;;;;;0.10;0.10;;;;;;;;;;5095720;27;20071;-87
2022/05/31 12:50:49;;;;;;;0.10;0.10;;;;;;;;;;5100486;27;20039;-84
2022/05/31 12:53:20;;;;;;;0.00;0.00;;;;;;;;;;5102257;27;20031;-84
2022/05/31 12:55:48;;;;;;;0.10;0.10;;;;;;;;;;5132844;27;20035;-87
2022/05/31 12:58:35;;;;;;;0.10;0.10;;;;;;;;;;5109078;27;20034;-83
2022/05/31 13:01:04;;;;;;;0.10;0.10;;;;;;;;;;5130554;27;20064;-86
2022/05/31 13:03:30;;;;;;;0.10;0.10;;;;;;;;;;5119643;27;20403;-84
2022/05/31 13:06:07;;;;;;;0.10;0.10;;;;;;;;;;5110916;27;20045;-84
2022/05/31 13:08:39;;;;;;;0.00;0.00;;;;;;;;;;5108041;27;20121;-92
2022/05/31 13:19:35;;;;;;;0.10;0.10;;;;;;;;;;5103851;27;20043;-84
2022/05/31 13:22:03;;;;;;;0.10;0.10;;;;;;;;;;5120569;27;20039;-89
2022/05/31 13:24:29;;;;;;;0.10;0.10;;;;;;;;;;5123634;27;20038;-83
2022/05/31 13:26:57;;;;;;;0.10;0.10;;;;;;;;;;5109904;27;20077;-87
2022/05/31 13:29:23;;;;;;;0.10;0.10;;;;;;;;;;5120924;27;20510;-88
2022/05/31 13:31:57;;;;;;;0.00;0.00;;;;;;;;;;5130916;27;20109;-85
2022/05/31 13:34:28;;;;;;;0.10;0.10;;;;;;;;;;5111378;27;20044;-83
2022/05/31 13:36:55;;;;;;;0.10;0.10;;;;;;;;;;5112685;27;20400;-84
2022/05/31 13:39:21;;;;;;;0.15;0.15;;;;;;;;;;5129794;27;20042;-85
2022/05/31 13:41:52;;;;;;;0.20;0.20;;;;;;;;;;5109920;27;20064;-85
2022/05/31 13:44:25;;;;;;;0.00;0.00;;;;;;;;;;5111444;27;20399;-87
2022/05/31 13:46:51;;;;;;;0.08;0.08;;;;;;;;;;5107276;27;20403;-84
2022/05/31 13:49:20;;;;;;;0.10;0.10;;;;;;;;;;5111319;27;20046;-84
2022/05/31 13:52:06;;;;;;;0.00;0.00;;;;;;;;;;5127253;27;20091;-82
2022/05/31 13:54:39;;;;;;;0.00;0.00;;;;;;;;;;5108870;27;20035;-85
2022/05/31 13:57:06;;;;;;;0.10;0.10;;;;;;;;;;5110823;27;20609;-83
2022/05/31 13:59:39;;;;;;;0.00;0.00;;;;;;;;;;5102119;28;20039;-83
2022/05/31 14:02:11;;;;;;;0.03;0.03;;;;;;;;;;5123625;27;20066;-86
2022/05/31 14:04:38;;;;;;;0.10;0.10;;;;;;;;;;5117787;28;20051;-85
2022/05/31 14:07:06;;;;;;;0.05;0.05;;;;;;;;;;5126817;27;20046;-85
2022/05/31 14:09:34;;;;;;;0.10;0.10;;;;;;;;;;5109636;28;20096;-85
2022/05/31 14:12:03;;;;;;;0.08;0.08;;;;;;;;;;5117192;27;20035;-89
2022/05/31 14:14:30;;;;;;;0.10;0.10;;;;;;;;;;5129283;27;20042;-89
2022/05/31 14:16:57;;;;;;;0.00;0.00;;;;;;;;;;5105198;27;20034;-86
2022/05/31 14:19:29;;;;;;;0.10;0.10;;;;;;;;;;5121302;27;20113;-89
2022/05/31 14:22:12;;;;;;;0.10;0.10;;;;;;;;;;5114448;27;20484;-89
2022/05/31 14:24:38;;;;;;;0.00;0.00;;;;;;;;;;5109252;27;20039;-89
2022/05/31 14:27:05;;;;;;;0.08;0.08;;;;;;;;;;5121961;27;20046;-92
2022/05/31 14:29:33;;;;;;;0.10;0.10;;;;;;;;;;5104950;27;20043;-88
2022/05/31 14:32:05;;;;;;;0.13;0.13;;;;;;;;;;5105442;27;20511;-90
2022/05/31 14:34:51;;;;;;;0.00;0.00;;;;;;;;;;5113940;27;20035;-90
2022/05/31 14:37:35;;;;;;;0.10;0.10;;;;;;;;;;5110671;27;20434;-87
2022/05/31 14:40:06;;;;;;;0.10;0.10;;;;;;;;;;5116077;27;20035;-85
2022/05/31 14:42:37;;;;;;;0.00;0.00;;;;;;;;;;5109747;27;20399;-87
2022/05/31 14:45:09;;;;;;;0.10;0.10;;;;;;;;;;5120979;27;20121;-85
2022/05/31 14:47:36;;;;;;;0.10;0.10;;;;;;;;;;5112081;27;20083;-86
2022/05/31 14:50:09;;;;;;;0.10;0.10;;;;;;;;;;5136860;27;20075;-92
2022/05/31 14:53:02;;;;;;;0.10;0.10;;;;;;;;;;5119522;27;20376;-87
2022/05/31 14:55:30;;;;;;;0.10;0.10;;;;;;;;;;5078996;27;20510;-85
2022/05/31 15:01:10;;;;;;;0.00;0.00;;;;;;;;;;5133525;27;20042;-88
2022/05/31 15:03:40;;;;;;;0.00;0.00;;;;;;;;;;5118719;27;20045;-88
2022/05/31 15:06:25;;;;;;;0.05;0.05;;;;;;;;;;5123655;27;20118;-86
2022/05/31 15:09:05;;;;;;;0.10;0.10;;;;;;;;;;5120232;27;20502;-88
2022/05/31 15:19:47;;;;;;;0.03;0.03;;;;;;;;;;5120841;27;20043;-87
2022/05/31 15:22:15;;;;;;;0.10;0.10;;;;;;;;;;5107171;27;20043;-88
2022/05/31 15:24:42;;;;;;;0.10;0.10;;;;;;;;;;5111627;27;20074;-87
2022/05/31 15:27:24;;;;;;;0.10;0.10;;;;;;;;;;5121664;27;20056;-87
2022/05/31 15:29:54;;;;;;;0.00;0.00;;;;;;;;;;5110397;27;20061;-86
2022/05/31 15:32:22;;;;;;;0.10;0.10;;;;;;;;;;5129922;27;20122;-88
2022/05/31 15:34:48;;;;;;;0.00;0.00;;;;;;;;;;5109962;27;20050;-88
2022/05/31 15:37:16;;;;;;;0.10;0.10;;;;;;;;;;5110676;27;20042;-85
2022/05/31 15:39:43;;;;;;;0.10;0.10;;;;;;;;;;5125624;27;20043;-86
2022/05/31 15:42:11;;;;;;;0.00;0.00;;;;;;;;;;5110118;27;20043;-86
2022/05/31 15:44:39;;;;;;;0.00;0.00;;;;;;;;;;5109028;27;20043;-86
2022/05/31 15:47:07;;;;;;;0.00;0.00;;;;;;;;;;5133451;27;20035;-88